بكين, Beijing

01:33 AM CST on أعس×س 01, 2014 (GMT +0800)
Beijing Capital (ZBAA) Elev 115 ft | 40.07 °N, 116.59 °E | Change Station

Current weather conditions updated 33 minutes ago

Mist
سديم
79 °F
Feels Like 79 °F
N
4
ريح متغير ريح from جنوب شرقی

Today is forecast to be Warmer than yesterday.

هذا اليوم
High -- | Low -- °F
--% Chance of Precip.
Yesterday
High -- | Low -- °F
Precip. -- في
5:11 AM 7:28 PM
الهلال الأول, 19% visible
الضغط 29.74 في
وضوح الرؤية 2.2 أميال
سحابات
نقطة الندى 72 °F
الرطوبة 78%
Rainfall 0.00 في
عمق الثلج Not available.
الأشعة فوق البنفسجية Not available.
Pollen Not available.
جودة الهواء Not available.
Flu Activity Not available.
METAR ZBAA 311700Z 14002MPS 3500 BR NSC 26/22 Q1007 NOSIG

More Conditions Fewer Conditions

الضغط 29.74 في
وضوح الرؤية 2.2 أميال
سحابات
نقطة الندى 72 °F
الرطوبة 78%
Rainfall 0.00 في
عمق الثلج Not available.
الأشعة فوق البنفسجية Not available.
Pollen Not available.
جودة الهواء Not available.
Flu Activity Not available.
METAR ZBAA 311700Z 14002MPS 3500 BR NSC 26/22 Q1007 NOSIG

More Conditions Fewer Conditions

10-Day Weather Forecast

Almanac

علم الفلك

Aug. 01, 2014 Rise Set
Actual Time 5:11 AM CST 7:28 PM CST
Civil Twilight 4:40 AM CST 7:58 PM CST
Nautical Twilight 4:03 AM CST 8:35 PM CST
Astronomical Twilight 3:22 AM CST 9:16 PM CST
قمر 10:02 AM CST (8/1) 9:54 PM CST (8/1)
Length Of Visible Light 15h 17m
طول الیوم
14h 16m
Tomorrow will be 1m 59s shorter.
الهلال الأول, 19% of the Moon is Illuminated
Jul 31
الهلال الأول
Aug 3
الربع الاول
Aug 10
بدر
Aug 17
الربع الآخر
Aug 25
New

Yesterday's Extremes

Country Highs Country Lows

Community

WunderPhotos

Upload Photos

1,739,385 photos uploaded!

Nearby

جودة الهواء

Not available.

عمق الثلج

Not available.

Earthquake Activity

City Distance Mag. Time & Date
No recent earthquake activity has been reported nearby.
Minimum magnitude displayed is 2.5.

Coastal Water Temperatures

مكان درجات الحرارة
No Stations Reporting

Nearby Weather Stations

There are no personal weather stations in this area.